Time;durP1;ratioP1;P1;durP2;ratioP2;P2;SDS_P1;SDS_P2;PMS_P1;PMS_P2;Temp;Humidity;BMP_temperature;BMP_pressure;BME280_temperature;BME280_humidity;BME280_pressure;Samples;Min_cycle;Max_cycle;Signal;HPM_P1;HPM_P2
2021/04/10 00:00:05;;;;;;;26.67;20.20;;;;;;;9.74;29.26;100791.19;4995032;28;97463;-72
2021/04/10 00:02:32;;;;;;;37.50;24.73;;;;;;;9.73;29.20;100777.03;5000364;28;96927;-71
2021/04/10 00:04:59;;;;;;;48.92;31.02;;;;;;;9.68;29.35;100770.69;4997056;28;97023;-72
2021/04/10 00:07:28;;;;;;;42.72;28.83;;;;;;;9.68;29.38;100769.81;4995081;28;98713;-72
2021/04/10 00:09:54;;;;;;;82.63;47.95;;;;;;;9.64;29.46;100771.50;4997927;28;100767;-72
2021/04/10 00:12:21;;;;;;;47.22;30.65;;;;;;;9.60;29.58;100781.97;4996489;28;97709;-72
2021/04/10 00:14:48;;;;;;;29.85;22.58;;;;;;;9.57;29.51;100785.44;4996560;28;97067;-72
2021/04/10 00:17:15;;;;;;;25.13;19.88;;;;;;;9.52;29.66;100772.91;4997944;28;99712;-72
2021/04/10 00:19:43;;;;;;;25.77;18.70;;;;;;;9.49;29.63;100771.09;4997882;28;99845;-72
2021/04/10 00:22:10;;;;;;;40.05;28.55;;;;;;;9.47;29.83;100762.19;4981646;28;97401;-72
2021/04/10 00:24:38;;;;;;;56.70;37.03;;;;;;;9.44;29.72;100764.75;5000546;28;96796;-72
2021/04/10 00:27:05;;;;;;;58.05;38.90;;;;;;;9.46;29.66;100765.69;4993826;28;98074;-72
2021/04/10 00:29:32;;;;;;;31.73;23.42;;;;;;;9.44;29.72;100779.78;4996427;28;98351;-71
2021/04/10 00:31:59;;;;;;;41.60;28.25;;;;;;;9.43;29.81;100785.94;4996524;28;97482;-71
2021/04/10 00:34:27;;;;;;;31.08;21.73;;;;;;;9.42;29.76;100782.41;4997344;28;97419;-72
2021/04/10 00:36:53;;;;;;;34.25;22.95;;;;;;;9.41;29.69;100782.38;4998387;28;97744;-72
2021/04/10 00:39:20;;;;;;;49.35;29.65;;;;;;;9.38;29.81;100785.81;4993338;28;97903;-74
2021/04/10 00:41:48;;;;;;;51.13;30.33;;;;;;;9.38;29.81;100785.81;5000124;28;97942;-71
2021/04/10 00:44:14;;;;;;;44.80;27.83;;;;;;;9.35;29.83;100784.84;4986376;28;98025;-72
2021/04/10 00:46:41;;;;;;;82.00;44.08;;;;;;;9.30;29.89;100798.00;4997822;28;97504;-72
2021/04/10 00:49:08;;;;;;;59.10;35.83;;;;;;;9.31;30.02;100797.16;4994848;28;100724;-72
2021/04/10 00:51:35;;;;;;;26.20;18.38;;;;;;;9.30;30.11;100787.38;5007682;28;97234;-73
2021/04/10 00:54:02;;;;;;;17.02;14.90;;;;;;;9.30;30.13;100794.47;4998621;28;96828;-73
2021/04/10 00:56:29;;;;;;;16.23;14.60;;;;;;;9.28;30.04;100791.72;4997355;28;97197;-72
2021/04/10 00:58:57;;;;;;;14.82;13.30;;;;;;;9.28;30.09;100796.19;5000547;28;99069;-72
2021/04/10 01:01:23;;;;;;;15.10;13.52;;;;;;;9.27;30.13;100799.66;5001217;28;97425;-73
2021/04/10 01:03:50;;;;;;;14.50;13.02;;;;;;;9.25;29.99;100783.69;4982244;28;97829;-73
2021/04/10 01:06:17;;;;;;;15.40;13.85;;;;;;;9.24;30.21;100780.13;4980976;28;100886;-72
2021/04/10 01:08:44;;;;;;;17.05;13.00;;;;;;;9.23;30.14;100764.16;5018224;27;99507;-73
2021/04/10 01:11:20;;;;;;;13.95;12.52;;;;;;;9.22;30.13;100765.03;5001291;28;97232;-73
2021/04/10 01:14:01;;;;;;;14.00;12.23;;;;;;;9.22;30.13;100760.59;4999985;28;96893;-74
2021/04/10 01:16:31;;;;;;;13.45;12.15;;;;;;;9.22;30.14;100763.25;4999225;28;97706;-73
2021/04/10 01:19:04;;;;;;;16.67;13.23;;;;;;;9.20;30.33;100764.09;4997929;28;96933;-73
2021/04/10 01:21:37;;;;;;;12.82;11.63;;;;;;;9.21;30.26;100765.88;4980210;28;98666;-72
2021/04/10 01:24:42;;;;;;;15.00;12.13;;;;;;;9.20;30.67;100764.09;4991418;28;96963;-73
2021/04/10 01:27:33;;;;;;;12.30;11.10;;;;;;;9.21;30.61;100760.56;4959412;28;100097;-72
2021/04/10 01:30:06;;;;;;;12.75;10.75;;;;;;;9.21;30.27;100771.19;4995635;28;98860;-71
2021/04/10 01:32:37;;;;;;;12.50;11.07;;;;;;;9.24;30.20;100766.00;5002058;28;96777;-72
2021/04/10 01:35:08;;;;;;;20.70;14.07;;;;;;;9.22;30.25;100765.03;5023044;27;98003;-72
2021/04/10 01:37:40;;;;;;;129.70;63.17;;;;;;;9.23;30.26;100769.47;4999114;28;97938;-72
2021/04/10 01:40:09;;;;;;;79.45;42.88;;;;;;;9.23;30.43;100764.16;4997106;28;100711;-72
2021/04/10 01:42:39;;;;;;;180.63;92.65;;;;;;;9.21;30.45;100769.44;4998956;28;96799;-72
2021/04/10 01:45:10;;;;;;;63.90;39.08;;;;;;;9.25;30.32;100765.13;4999814;28;96933;-71
2021/04/10 01:47:38;;;;;;;64.22;35.85;;;;;;;9.25;30.77;100773.09;4999512;28;100482;-72
2021/04/10 01:50:06;;;;;;;19.35;15.38;;;;;;;9.23;30.53;100780.09;4981685;28;102066;-71
2021/04/10 01:52:33;;;;;;;31.17;20.33;;;;;;;9.26;30.53;100782.88;4997228;28;97712;-71
2021/04/10 01:55:01;;;;;;;18.70;12.77;;;;;;;9.27;30.60;100783.75;4998224;28;98016;-72
2021/04/10 01:57:31;;;;;;;15.05;12.30;;;;;;;9.28;30.53;100777.59;4981983;28;99882;-73
2021/04/10 01:59:59;;;;;;;17.00;13.00;;;;;;;9.25;30.67;100781.03;5000508;28;98926;-73
2021/04/10 02:02:41;;;;;;;12.48;11.13;;;;;;;9.26;30.55;100780.22;4997571;28;97406;-72
2021/04/10 02:05:15;;;;;;;11.23;9.90;;;;;;;9.23;30.83;100780.09;5013797;28;96968;-72
2021/04/10 02:07:47;;;;;;;12.20;10.90;;;;;;;9.23;30.69;100785.41;5000112;28;98251;-73
2021/04/10 02:10:17;;;;;;;11.20;10.18;;;;;;;9.20;30.90;100780.94;4996944;28;97894;-73
2021/04/10 02:12:56;;;;;;;10.88;9.77;;;;;;;9.17;30.98;100777.28;4982540;28;97126;-72
2021/04/10 02:15:39;;;;;;;10.63;9.52;;;;;;;9.18;30.80;100776.44;5013687;28;96883;-72
2021/04/10 02:18:07;;;;;;;11.70;10.60;;;;;;;9.23;30.79;100781.00;4996777;28;97706;-72
2021/04/10 02:20:34;;;;;;;10.73;9.40;;;;;;;9.20;30.89;100782.69;5000211;28;99442;-73
2021/04/10 02:23:03;;;;;;;11.70;9.43;;;;;;;9.19;31.06;100800.38;4998841;28;97196;-73
2021/04/10 02:25:38;;;;;;;10.23;9.13;;;;;;;9.19;30.95;100799.47;5000777;28;97291;-72
2021/04/10 02:28:08;;;;;;;12.02;9.77;;;;;;;9.17;31.06;100801.16;4981719;28;100287;-73
2021/04/10 02:30:35;;;;;;;9.90;9.00;;;;;;;9.15;31.09;100800.25;5015002;28;100795;-73
2021/04/10 02:33:04;;;;;;;13.23;9.65;;;;;;;9.14;31.13;100802.00;4999475;28;96801;-73
2021/04/10 02:35:41;;;;;;;11.57;10.38;;;;;;;9.18;31.14;100795.03;4979723;28;96879;-72
2021/04/10 02:38:08;;;;;;;15.02;9.32;;;;;;;9.17;31.25;100801.16;4981042;28;100591;-73
2021/04/10 02:40:38;;;;;;;10.63;9.52;;;;;;;9.15;31.18;100802.91;4980894;28;100718;-73
2021/04/10 02:43:08;;;;;;;11.15;9.27;;;;;;;9.11;31.34;100803.69;5017249;28;97234;-72
2021/04/10 02:45:40;;;;;;;10.10;8.98;;;;;;;9.12;31.17;100818.75;4981062;28;97028;-73
2021/04/10 02:48:08;;;;;;;11.35;9.52;;;;;;;9.09;31.22;100818.66;4996647;28;99051;-74
2021/04/10 02:50:36;;;;;;;12.48;9.95;;;;;;;9.06;31.82;100818.59;4980603;28;100471;-74
2021/04/10 02:53:07;;;;;;;10.85;9.82;;;;;;;9.04;31.53;100820.31;4982995;28;97105;-73
2021/04/10 02:55:39;;;;;;;10.10;9.15;;;;;;;9.02;31.75;100824.66;4997885;28;97931;-73
2021/04/10 02:58:10;;;;;;;11.15;10.05;;;;;;;9.03;31.61;100821.13;4998654;28;98734;-74
2021/04/10 03:00:38;;;;;;;12.02;9.77;;;;;;;8.98;31.96;100823.69;4979614;28;99402;-74
2021/04/10 03:03:06;;;;;;;12.18;10.27;;;;;;;8.95;31.95;100820.91;5017047;28;96880;-74
2021/04/10 03:05:33;;;;;;;13.45;9.73;;;;;;;8.99;31.79;100822.81;4998325;28;97247;-74
2021/04/10 03:08:02;;;;;;;11.88;10.07;;;;;;;8.96;32.12;100819.16;4998260;28;98011;-73
2021/04/10 03:10:34;;;;;;;11.20;9.93;;;;;;;8.95;32.21;100815.63;5028087;27;97585;-74
2021/04/10 03:13:03;;;;;;;12.27;10.07;;;;;;;8.98;32.18;100814.81;4981868;28;96798;-73
2021/04/10 03:15:31;;;;;;;11.38;9.85;;;;;;;9.01;32.26;100814.88;4980167;28;97216;-74
2021/04/10 03:17:58;;;;;;;10.48;9.35;;;;;;;9.06;32.29;100818.59;4982937;28;99410;-74
2021/04/10 03:20:28;;;;;;;12.35;10.40;;;;;;;8.99;32.44;100817.50;4999510;28;97754;-73
2021/04/10 03:22:59;;;;;;;11.23;10.07;;;;;;;9.00;32.38;100821.06;5012676;28;96781;-74
2021/04/10 03:25:34;;;;;;;11.13;9.60;;;;;;;8.97;32.42;100821.88;4981286;28;96900;-73
2021/04/10 03:28:04;;;;;;;10.45;9.35;;;;;;;8.95;32.39;100825.34;4981300;28;99507;-73
2021/04/10 03:30:31;;;;;;;11.25;10.07;;;;;;;8.96;32.54;100825.38;4980103;28;99796;-73
2021/04/10 03:32:59;;;;;;;12.52;9.32;;;;;;;8.95;32.61;100814.75;4998369;28;97121;-73
2021/04/10 03:35:27;;;;;;;13.18;10.10;;;;;;;8.93;32.64;100819.97;4996452;28;96971;-73
2021/04/10 03:37:59;;;;;;;14.80;10.20;;;;;;;8.89;32.70;100822.50;4985548;28;99628;-74
2021/04/10 03:40:30;;;;;;;13.13;9.73;;;;;;;8.87;32.73;100819.81;4982383;28;98995;-74
2021/04/10 03:42:58;;;;;;;12.20;9.40;;;;;;;8.89;32.80;100825.16;5002311;28;96835;-73
2021/04/10 03:45:33;;;;;;;10.35;9.38;;;;;;;8.88;32.80;100828.66;5000500;28;96976;-72
2021/04/10 03:48:05;;;;;;;10.90;9.80;;;;;;;8.90;32.84;100829.59;5002218;28;98041;-73
2021/04/10 03:51:00;;;;;;;10.63;9.52;;;;;;;8.93;32.63;100824.41;4999104;28;96860;-73
2021/04/10 03:53:36;;;;;;;12.82;9.75;;;;;;;8.90;32.92;100821.66;5032623;27;97100;-74
2021/04/10 03:56:07;;;;;;;14.20;9.68;;;;;;;8.91;32.78;100820.81;4985159;28;97922;-73
2021/04/10 03:58:36;;;;;;;10.50;8.90;;;;;;;8.89;32.89;100822.50;5001404;28;97214;-74
2021/04/10 04:01:04;;;;;;;10.00;8.82;;;;;;;8.87;33.10;100827.78;4983174;28;100727;-73
2021/04/10 04:03:32;;;;;;;12.35;9.43;;;;;;;8.87;32.88;100827.78;4987644;28;96817;-74
2021/04/10 04:05:59;;;;;;;11.63;9.77;;;;;;;8.87;33.07;100827.78;5000204;28;96942;-71
2021/04/10 04:08:27;;;;;;;12.32;9.07;;;;;;;8.86;33.07;100830.41;4998464;28;97757;-71
2021/04/10 04:10:54;;;;;;;10.77;8.90;;;;;;;8.86;33.32;100833.94;5000774;28;100446;-72
2021/04/10 04:13:21;;;;;;;11.40;9.68;;;;;;;8.88;33.16;100828.66;4982507;28;97652;-72
2021/04/10 04:15:49;;;;;;;11.00;9.13;;;;;;;8.89;33.17;100828.72;4999916;28;97136;-72
2021/04/10 04:18:15;;;;;;;13.02;9.75;;;;;;;8.89;33.15;100835.78;4994251;28;97679;-72
2021/04/10 04:20:42;;;;;;;11.38;9.82;;;;;;;8.85;33.34;100834.81;5002554;28;99477;-72
2021/04/10 04:23:09;;;;;;;10.27;9.23;;;;;;;8.82;33.23;100828.50;5002700;28;96950;-72
2021/04/10 04:25:36;;;;;;;10.90;9.82;;;;;;;8.81;33.43;100832.91;5003193;28;97812;-73
2021/04/10 04:28:04;;;;;;;11.50;9.82;;;;;;;8.84;33.43;100832.97;5002880;28;97692;-73
2021/04/10 04:30:31;;;;;;;12.70;9.85;;;;;;;8.81;33.24;100839.97;4994318;28;97935;-73
2021/04/10 04:32:58;;;;;;;9.63;8.63;;;;;;;8.79;33.46;100839.91;4997649;28;98179;-73
2021/04/10 04:35:25;;;;;;;10.23;9.13;;;;;;;8.82;33.58;100860.34;4997801;28;97335;-72
2021/04/10 04:37:52;;;;;;;11.10;9.18;;;;;;;8.81;33.43;100862.09;5001540;28;98470;-72
2021/04/10 04:40:19;;;;;;;18.95;12.13;;;;;;;8.80;33.57;100862.97;4999027;28;98572;-72
2021/04/10 04:42:45;;;;;;;14.38;10.65;;;;;;;8.78;33.61;100859.38;5000282;28;97409;-73
2021/04/10 04:45:12;;;;;;;10.15;8.85;;;;;;;8.80;33.77;100862.06;5000973;28;96992;-71
2021/04/10 04:47:39;;;;;;;13.05;11.40;;;;;;;8.80;33.67;100868.28;5002602;28;98063;-71
2021/04/10 04:50:09;;;;;;;12.73;9.55;;;;;;;8.82;33.42;100868.31;4999505;28;98704;-71
2021/04/10 04:52:35;;;;;;;11.25;10.07;;;;;;;8.80;33.70;100867.34;5001434;28;97975;-73
2021/04/10 04:55:02;;;;;;;11.63;10.20;;;;;;;8.77;33.52;100868.16;5000056;28;97569;-72
2021/04/10 04:57:30;;;;;;;12.63;11.05;;;;;;;8.74;33.89;100878.69;5001393;28;100612;-72
2021/04/10 04:59:57;;;;;;;14.25;10.75;;;;;;;8.74;33.66;100877.78;5001440;28;97853;-73
2021/04/10 05:02:24;;;;;;;15.82;11.30;;;;;;;8.71;33.98;100873.31;5000410;28;97295;-73
2021/04/10 05:04:51;;;;;;;13.80;11.52;;;;;;;8.73;33.71;100886.59;4999374;28;96791;-72
2021/04/10 05:07:19;;;;;;;13.88;11.48;;;;;;;8.74;33.84;100883.09;5001821;28;97745;-72
2021/04/10 05:09:46;;;;;;;12.50;11.18;;;;;;;8.72;33.99;100891.00;5004467;28;100321;-72
2021/04/10 05:12:13;;;;;;;14.65;11.43;;;;;;;8.69;33.81;100890.00;5003846;28;97558;-73
2021/04/10 05:14:40;;;;;;;15.45;11.70;;;;;;;8.71;34.05;100896.28;5008300;28;99340;-74
2021/04/10 05:17:06;;;;;;;40.15;23.10;;;;;;;8.69;34.02;100897.97;5008003;28;99004;-74
2021/04/10 05:19:34;;;;;;;15.77;13.05;;;;;;;8.67;34.10;100907.63;5034217;27;100707;-75
2021/04/10 05:22:00;;;;;;;13.73;11.80;;;;;;;8.67;34.04;100912.94;5002654;28;96867;-75
2021/04/10 05:24:28;;;;;;;12.88;11.45;;;;;;;8.66;34.04;100909.38;5031880;27;97285;-75
2021/04/10 05:26:55;;;;;;;16.60;12.27;;;;;;;8.69;34.17;100914.81;4999968;28;99303;-74
2021/04/10 05:29:22;;;;;;;13.27;11.02;;;;;;;8.67;34.26;100926.19;5030546;27;100184;-74
2021/04/10 05:31:49;;;;;;;12.75;11.05;;;;;;;8.69;34.10;100937.75;4983922;28;97334;-75
2021/04/10 05:34:16;;;;;;;12.75;10.75;;;;;;;8.72;33.98;100930.81;5004159;28;96769;-75
2021/04/10 05:36:43;;;;;;;11.68;10.48;;;;;;;8.70;34.04;100936.91;5000239;28;97921;-75
2021/04/10 05:39:09;;;;;;;12.27;11.02;;;;;;;8.67;34.25;100940.38;4982782;28;99655;-75
2021/04/10 05:41:37;;;;;;;30.15;18.40;;;;;;;8.69;34.10;100937.75;5004987;28;96866;-75
2021/04/10 05:44:04;;;;;;;16.98;12.27;;;;;;;8.67;34.17;100929.75;5003060;28;97453;-75
2021/04/10 05:46:31;;;;;;;11.80;10.20;;;;;;;8.69;34.23;100932.47;5004335;28;97778;-74
2021/04/10 05:48:58;;;;;;;9.85;8.77;;;;;;;8.67;34.24;100928.84;5000950;28;99170;-75
2021/04/10 05:51:25;;;;;;;12.23;10.98;;;;;;;8.68;34.09;100922.69;5000450;28;96900;-74
2021/04/10 05:53:52;;;;;;;16.33;10.80;;;;;;;8.65;34.57;100919.94;5001635;28;97487;-75
2021/04/10 05:56:19;;;;;;;12.55;9.90;;;;;;;8.64;34.30;100931.44;4999484;28;100235;-74
2021/04/10 05:58:47;;;;;;;14.52;10.45;;;;;;;8.63;34.49;100930.50;4999547;28;99558;-75
2021/04/10 06:01:14;;;;;;;13.82;10.10;;;;;;;8.64;34.48;100934.94;5003073;28;97134;-75
2021/04/10 06:03:40;;;;;;;17.35;13.68;;;;;;;8.64;34.51;100939.38;5000810;28;96947;-74
2021/04/10 06:06:08;;;;;;;13.45;9.82;;;;;;;8.62;34.66;100934.03;5002066;28;99167;-75
2021/04/10 06:08:35;;;;;;;10.77;9.65;;;;;;;8.61;34.43;100939.25;4998983;28;97581;-75
2021/04/10 06:11:02;;;;;;;17.70;12.38;;;;;;;8.60;34.48;100945.44;5000579;28;96900;-75
2021/04/10 06:13:29;;;;;;;33.97;19.13;;;;;;;8.58;34.44;100949.78;5000775;28;96883;-74
2021/04/10 06:15:57;;;;;;;13.25;10.95;;;;;;;8.58;34.59;100950.69;5002054;28;98366;-74
2021/04/10 06:18:24;;;;;;;10.65;9.48;;;;;;;8.57;34.77;100969.22;4999529;28;97518;-74
2021/04/10 06:20:51;;;;;;;10.85;9.57;;;;;;;8.60;34.57;100964.91;4999511;28;97370;-74
2021/04/10 06:23:18;;;;;;;11.70;10.57;;;;;;;8.57;34.50;100972.75;4999633;28;97578;-74
2021/04/10 06:25:45;;;;;;;11.02;9.93;;;;;;;8.62;34.62;100975.56;5002541;28;98474;-74
2021/04/10 06:28:11;;;;;;;40.75;22.10;;;;;;;8.57;34.72;100975.41;5012799;27;97624;-73
2021/04/10 06:30:38;;;;;;;17.42;12.80;;;;;;;8.53;34.65;100978.81;4999897;28;97694;-74
2021/04/10 06:33:06;;;;;;;11.85;10.38;;;;;;;8.49;34.68;100976.03;4996189;28;97612;-74
2021/04/10 06:35:33;;;;;;;13.00;11.07;;;;;;;8.52;34.65;100976.09;4998716;28;97685;-75
2021/04/10 06:38:00;;;;;;;13.27;11.07;;;;;;;8.50;34.93;100977.81;5000284;28;99556;-73
2021/04/10 06:40:30;;;;;;;10.77;9.48;;;;;;;8.48;34.71;100979.50;4998507;28;98443;-72
2021/04/10 06:42:57;;;;;;;13.40;10.38;;;;;;;8.47;34.84;100977.69;5001407;28;97404;-74
2021/04/10 06:45:24;;;;;;;13.65;10.23;;;;;;;8.48;34.86;100990.09;4997890;28;97984;-73
2021/04/10 06:47:52;;;;;;;12.00;9.95;;;;;;;8.47;34.71;100988.28;4996719;28;98099;-74
2021/04/10 06:50:20;;;;;;;13.30;10.30;;;;;;;8.45;34.85;100996.19;4999236;28;97141;-74
2021/04/10 06:52:47;;;;;;;11.85;9.63;;;;;;;8.47;34.70;101004.19;4999498;28;96925;-74
2021/04/10 06:55:18;;;;;;;30.55;17.98;;;;;;;8.46;35.12;101002.41;5002973;28;98432;-75
2021/04/10 06:57:52;;;;;;;19.80;13.00;;;;;;;8.44;34.92;101010.28;4998695;28;100601;-74
2021/04/10 07:00:20;;;;;;;12.43;9.50;;;;;;;8.46;34.81;101007.72;4999299;28;97393;-74
2021/04/10 07:02:48;;;;;;;12.95;10.85;;;;;;;8.41;35.06;101002.25;5001561;28;98182;-74
2021/04/10 07:05:15;;;;;;;12.02;9.35;;;;;;;8.41;34.75;100998.69;5016800;28;99344;-74
2021/04/10 07:07:43;;;;;;;14.52;9.57;;;;;;;8.42;35.01;100998.75;4997604;28;100716;-74
2021/04/10 07:10:12;;;;;;;21.38;13.63;;;;;;;8.43;34.97;100999.63;5005941;28;97398;-73
2021/04/10 07:12:39;;;;;;;20.48;11.18;;;;;;;8.46;34.72;101002.41;4982931;28;98160;-74
2021/04/10 07:15:07;;;;;;;16.85;10.25;;;;;;;8.46;35.01;101008.59;4986151;28;99306;-74
2021/04/10 07:17:34;;;;;;;10.57;8.75;;;;;;;8.49;35.09;101013.16;5001559;28;99035;-74
2021/04/10 07:20:23;;;;;;;10.38;8.77;;;;;;;8.51;35.30;101017.66;4999947;28;97039;-73
2021/04/10 07:23:02;;;;;;;12.80;8.40;;;;;;;8.54;35.24;101014.19;5001788;28;97411;-74
2021/04/10 07:25:30;;;;;;;10.48;7.50;;;;;;;8.55;34.84;101013.34;5016690;27;99251;-74
2021/04/10 07:28:25;;;;;;;7.95;7.15;;;;;;;8.58;35.39;101018.75;5001899;28;98169;-74
2021/04/10 07:30:59;;;;;;;11.50;8.18;;;;;;;8.57;34.64;101014.31;4987394;28;97473;-74
2021/04/10 07:33:28;;;;;;;12.13;7.72;;;;;;;8.56;34.67;101016.06;4987428;28;96876;-74
2021/04/10 07:35:55;;;;;;;9.70;8.32;;;;;;;8.55;34.90;101013.34;5017478;27;98828;-74
2021/04/10 07:38:26;;;;;;;10.30;8.05;;;;;;;8.55;34.99;101018.66;5002105;28;99802;-74
2021/04/10 07:40:53;;;;;;;9.45;8.38;;;;;;;8.60;34.71;101022.34;5003505;28;97258;-74
2021/04/10 07:43:26;;;;;;;10.48;8.38;;;;;;;8.63;34.91;101022.44;5004082;28;97218;-74
2021/04/10 07:46:11;;;;;;;11.25;8.48;;;;;;;8.67;35.02;101025.28;5002069;28;99812;-74
2021/04/10 07:48:37;;;;;;;10.32;8.13;;;;;;;8.63;34.71;101027.75;5017126;27;99202;-74
2021/04/10 07:51:13;;;;;;;15.43;7.75;;;;;;;8.66;35.08;101036.72;5001281;28;97266;-74
2021/04/10 07:53:40;;;;;;;11.35;8.43;;;;;;;8.73;34.87;101035.19;5007522;28;96936;-74
2021/04/10 07:56:08;;;;;;;9.18;7.47;;;;;;;8.76;34.78;101035.25;5002724;28;99474;-74
2021/04/10 07:58:37;;;;;;;21.70;12.25;;;;;;;8.77;34.73;101045.03;5003024;28;99907;-74
2021/04/10 08:01:06;;;;;;;48.08;30.85;;;;;;;8.81;34.68;101046.91;5001859;28;97100;-73
2021/04/10 08:03:34;;;;;;;24.52;13.93;;;;;;;8.85;34.71;101046.19;5002426;28;97272;-73
2021/04/10 08:06:19;;;;;;;14.68;8.73;;;;;;;8.90;35.20;101055.19;4999544;28;99043;-74
2021/04/10 08:09:04;;;;;;;11.38;7.93;;;;;;;8.92;34.68;101056.13;5001467;28;97511;-73
2021/04/10 08:11:34;;;;;;;11.95;7.47;;;;;;;8.99;34.83;101056.38;4998961;28;97207;-74
2021/04/10 08:14:05;;;;;;;10.10;7.95;;;;;;;9.03;34.52;101063.59;4995319;28;97071;-74
2021/04/10 08:16:32;;;;;;;7.68;6.90;;;;;;;9.08;34.59;101069.03;5007046;28;99649;-73
2021/04/10 08:19:03;;;;;;;12.23;9.45;;;;;;;9.10;34.51;101073.53;5002187;28;97854;-74
2021/04/10 08:21:43;;;;;;;14.48;10.73;;;;;;;9.15;34.96;101081.69;5006409;28;96794;-74
2021/04/10 08:24:31;;;;;;;11.93;8.90;;;;;;;9.19;35.06;101081.81;5004076;28;96890;-73
2021/04/10 08:26:59;;;;;;;10.88;8.05;;;;;;;9.23;34.57;101086.38;5017494;28;100764;-75
2021/04/10 08:29:27;;;;;;;13.50;7.97;;;;;;;9.29;34.67;101090.06;5000730;28;98715;-74
2021/04/10 08:31:54;;;;;;;14.38;8.98;;;;;;;9.33;34.35;101082.25;5004954;28;97512;-74
2021/04/10 08:34:21;;;;;;;16.40;10.80;;;;;;;9.41;34.31;101083.34;5008606;28;97227;-74
2021/04/10 08:36:53;;;;;;;17.13;11.38;;;;;;;9.45;34.49;101089.66;4998272;28;97779;-74
2021/04/10 08:39:24;;;;;;;11.35;8.38;;;;;;;9.53;34.33;101090.84;4996393;28;97145;-74
2021/04/10 08:41:55;;;;;;;11.63;7.63;;;;;;;9.58;34.22;101091.88;4992942;28;97505;-73
2021/04/10 08:44:25;;;;;;;10.43;7.72;;;;;;;9.61;34.26;101092.88;5004381;28;97338;-73
2021/04/10 08:46:53;;;;;;;9.05;8.15;;;;;;;9.64;34.38;101087.66;5001647;28;97907;-73
2021/04/10 08:49:21;;;;;;;11.45;8.98;;;;;;;9.66;34.30;101093.94;4995893;28;99639;-73
2021/04/10 08:51:53;;;;;;;12.55;8.25;;;;;;;9.74;34.19;101096.78;4999935;28;98148;-73
2021/04/10 08:54:20;;;;;;;11.77;8.10;;;;;;;9.76;34.28;101093.31;5017569;28;98207;-73
2021/04/10 08:56:49;;;;;;;78.47;40.40;;;;;;;9.81;34.28;101101.44;4995273;28;99942;-73
2021/04/10 08:59:18;;;;;;;18.42;11.13;;;;;;;9.78;34.21;101094.28;4990534;28;100452;-70
2021/04/10 09:01:47;;;;;;;10.35;8.10;;;;;;;9.76;34.45;101105.72;5001458;28;97243;-73
2021/04/10 09:04:15;;;;;;;12.18;8.50;;;;;;;9.76;34.29;101106.63;5000160;28;96783;-73
2021/04/10 09:06:51;;;;;;;14.32;8.38;;;;;;;9.73;34.69;101109.19;4994263;28;99253;-73
2021/04/10 09:09:28;;;;;;;11.52;7.50;;;;;;;9.76;34.72;101109.28;5001838;28;96910;-73
2021/04/10 09:12:21;;;;;;;12.98;8.00;;;;;;;9.82;34.54;101106.81;5031224;27;97083;-73
2021/04/10 09:14:49;;;;;;;11.65;7.70;;;;;;;9.82;34.23;101104.16;4994671;28;96891;-73
2021/04/10 09:17:16;;;;;;;14.18;8.48;;;;;;;9.88;34.13;101106.97;5000893;28;98442;-73
2021/04/10 09:19:45;;;;;;;9.75;7.35;;;;;;;9.91;34.04;101104.41;5027092;27;98475;-71
2021/04/10 09:22:17;;;;;;;25.20;18.15;;;;;;;9.91;34.27;101120.38;4994072;28;97571;-72
2021/04/10 09:24:45;;;;;;;20.40;15.63;;;;;;;9.96;34.06;101116.06;4996421;28;96803;-71
2021/04/10 09:27:24;;;;;;;12.93;11.55;;;;;;;10.01;34.28;101119.75;4999088;28;97637;-72
2021/04/10 09:29:54;;;;;;;10.82;7.90;;;;;;;10.07;33.96;101125.25;4994985;28;99306;-71
2021/04/10 09:32:40;;;;;;;8.02;7.10;;;;;;;10.18;34.17;101125.56;4996928;28;97378;-72
2021/04/10 09:35:11;;;;;;;19.92;13.57;;;;;;;10.19;33.91;101125.59;4977002;28;98130;-72
2021/04/10 09:37:57;;;;;;;15.00;9.93;;;;;;;10.25;34.26;101134.63;4993907;28;97991;-72
2021/04/10 09:40:49;;;;;;;14.18;9.20;;;;;;;10.25;33.84;101130.19;4988771;28;100873;-72
2021/04/10 09:43:21;;;;;;;12.90;8.68;;;;;;;10.27;33.90;101130.22;4997081;28;96888;-72
2021/04/10 09:45:48;;;;;;;10.57;7.18;;;;;;;10.29;33.74;101139.16;4998789;28;97111;-71
2021/04/10 09:48:20;;;;;;;8.63;7.13;;;;;;;10.34;33.83;101141.06;5014897;27;98646;-72
2021/04/10 09:51:14;;;;;;;8.07;6.70;;;;;;;10.44;34.06;101150.25;4981846;28;99224;-71
2021/04/10 09:53:46;;;;;;;7.68;6.43;;;;;;;10.49;33.59;101144.19;5000418;28;97832;-70
2021/04/10 09:56:14;;;;;;;9.32;6.78;;;;;;;10.50;33.60;101150.44;5001089;28;96797;-73
2021/04/10 09:58:46;;;;;;;11.27;6.85;;;;;;;10.50;33.61;101148.69;5000618;28;98423;-73
2021/04/10 10:01:19;;;;;;;11.07;7.57;;;;;;;10.52;33.54;101148.72;4981892;28;99338;-73
2021/04/10 10:03:47;;;;;;;9.27;7.40;;;;;;;10.55;33.35;101154.09;5013136;28;97263;-73
2021/04/10 10:06:27;;;;;;;13.40;7.78;;;;;;;10.48;33.43;101152.16;5003640;28;98173;-73
2021/04/10 10:08:54;;;;;;;9.02;7.40;;;;;;;10.45;33.71;101160.06;5005627;28;99668;-72
2021/04/10 10:11:21;;;;;;;10.18;7.32;;;;;;;10.45;33.60;101157.41;5001829;28;96849;-73
2021/04/10 10:13:49;;;;;;;21.90;14.50;;;;;;;10.45;33.52;101162.72;4999571;28;96913;-74
2021/04/10 10:16:24;;;;;;;41.40;20.52;;;;;;;10.52;33.82;101170.00;5033689;27;96906;-74
2021/04/10 10:18:51;;;;;;;12.07;8.93;;;;;;;10.55;33.48;101173.66;5034774;27;99660;-74
2021/04/10 10:21:20;;;;;;;10.00;7.15;;;;;;;10.60;33.44;101179.06;4997398;28;97626;-73
2021/04/10 10:23:49;;;;;;;7.53;6.60;;;;;;;10.62;33.30;101172.03;4988900;28;97161;-74
2021/04/10 10:26:18;;;;;;;9.90;7.10;;;;;;;10.56;33.41;101178.09;4994708;28;96992;-74
2021/04/10 10:28:47;;;;;;;8.45;7.15;;;;;;;10.53;33.60;101175.34;4992866;28;100342;-73
2021/04/10 10:31:17;;;;;;;9.75;7.10;;;;;;;10.50;33.46;101182.34;5028157;27;98574;-74
2021/04/10 10:33:44;;;;;;;21.55;14.55;;;;;;;10.50;33.59;101172.63;4992903;28;96932;-74
2021/04/10 10:36:12;;;;;;;33.03;23.65;;;;;;;10.50;33.71;101177.94;4995969;28;97914;-74
2021/04/10 10:38:45;;;;;;;17.23;12.45;;;;;;;10.51;33.54;101181.47;4994607;28;100875;-71
2021/04/10 10:41:13;;;;;;;12.57;8.68;;;;;;;10.55;33.71;101178.97;5009769;28;97903;-73
2021/04/10 10:43:40;;;;;;;8.48;7.22;;;;;;;10.52;33.49;101177.97;4998855;28;97311;-73
2021/04/10 10:46:08;;;;;;;9.85;7.13;;;;;;;10.57;33.41;101182.56;4993788;28;97482;-74
2021/04/10 10:48:37;;;;;;;8.13;6.85;;;;;;;10.58;33.51;101180.78;4997078;28;98350;-73
2021/04/10 10:51:07;;;;;;;8.10;7.28;;;;;;;10.60;33.39;101179.97;5014848;27;100523;-73
2021/04/10 10:53:35;;;;;;;9.48;8.02;;;;;;;10.64;33.38;101180.97;4995164;28;97172;-73
2021/04/10 10:56:09;;;;;;;10.30;7.20;;;;;;;10.63;33.37;101180.06;4992906;28;97224;-73
2021/04/10 10:58:42;;;;;;;11.55;8.10;;;;;;;10.66;33.23;101180.16;4992082;28;97660;-74
2021/04/10 11:01:18;;;;;;;8.55;7.75;;;;;;;10.67;33.38;101181.03;5007847;28;99480;-73
2021/04/10 11:03:49;;;;;;;11.02;7.07;;;;;;;10.70;33.35;101182.03;5000563;28;97243;-73
2021/04/10 11:06:17;;;;;;;12.15;6.95;;;;;;;10.74;33.19;101180.38;4995999;28;97436;-74
2021/04/10 11:08:44;;;;;;;11.70;7.40;;;;;;;10.81;33.17;101185.00;5000245;28;98910;-75
2021/04/10 11:11:13;;;;;;;10.25;7.20;;;;;;;10.83;33.21;101180.63;4991942;28;100409;-76
2021/04/10 11:13:42;;;;;;;14.10;7.63;;;;;;;10.92;32.89;101183.50;5039953;27;96901;-76
2021/04/10 11:16:09;;;;;;;9.50;7.53;;;;;;;10.92;33.03;101178.19;5008965;28;97667;-77
2021/04/10 11:18:36;;;;;;;10.85;6.72;;;;;;;10.88;33.02;101179.88;4999794;28;97872;-75
2021/04/10 11:21:25;;;;;;;11.05;7.38;;;;;;;10.94;33.03;101180.00;4996500;28;97672;-77
2021/04/10 11:24:02;;;;;;;10.15;7.13;;;;;;;10.96;32.97;101180.03;4996770;28;97376;-76
2021/04/10 11:26:51;;;;;;;12.38;7.53;;;;;;;11.03;32.98;101177.59;5000212;28;97605;-77
2021/04/10 11:29:27;;;;;;;43.40;24.88;;;;;;;11.04;32.74;101184.72;5024741;27;99112;-76
2021/04/10 11:32:09;;;;;;;44.20;25.10;;;;;;;11.05;32.87;101180.28;4984595;28;97846;-76